Time;durP1;ratioP1;P1;durP2;ratioP2;P2;SDS_P1;SDS_P2;PMS_P1;PMS_P2;Temp;Humidity;BMP_temperature;BMP_pressure;BME280_temperature;BME280_humidity;BME280_pressure;Samples;Min_cycle;Max_cycle;Signal;HPM_P1;HPM_P2
2022/12/13 00:00:29;;;;;;;30.50;21.10;;;-0.50;99.90;;;;;;4856176;29;20065;-62
2022/12/13 00:02:56;;;;;;;29.05;20.40;;;-0.60;99.90;;;;;;4854669;29;20060;-62
2022/12/13 00:05:23;;;;;;;31.40;22.08;;;-0.60;99.90;;;;;;4853467;29;20050;-63
2022/12/13 00:07:49;;;;;;;32.45;22.40;;;-0.60;99.90;;;;;;4852427;29;20384;-62
2022/12/13 00:10:16;;;;;;;30.40;21.67;;;-0.60;99.90;;;;;;4850657;29;20062;-61
2022/12/13 00:12:43;;;;;;;31.58;21.98;;;-0.60;99.90;;;;;;4858827;29;20132;-62
2022/12/13 00:15:10;;;;;;;31.70;22.23;;;-0.60;99.90;;;;;;4861568;29;20053;-62
2022/12/13 00:17:37;;;;;;;31.70;21.67;;;-0.60;99.90;;;;;;4843828;29;20050;-64
2022/12/13 00:20:03;;;;;;;30.83;21.58;;;-0.60;99.90;;;;;;4846035;29;20122;-63
2022/12/13 00:22:30;;;;;;;33.08;22.80;;;-0.70;99.90;;;;;;4862489;29;20497;-64
2022/12/13 00:24:57;;;;;;;32.00;21.90;;;-0.60;99.90;;;;;;4862308;29;20068;-64
2022/12/13 00:27:23;;;;;;;32.38;22.83;;;-0.70;99.90;;;;;;4862905;29;20118;-64
2022/12/13 00:29:51;;;;;;;31.13;21.92;;;-0.70;99.90;;;;;;4861540;29;20141;-63
2022/12/13 00:32:18;;;;;;;31.83;22.35;;;-0.70;99.90;;;;;;4861620;29;20042;-63
2022/12/13 00:34:45;;;;;;;34.42;23.20;;;-0.70;99.90;;;;;;4859958;29;20045;-64
2022/12/13 00:37:12;;;;;;;32.42;22.85;;;-0.70;99.90;;;;;;4862095;29;20084;-63
2022/12/13 00:39:39;;;;;;;34.63;24.48;;;-0.70;99.90;;;;;;4861668;29;20132;-63
2022/12/13 00:42:05;;;;;;;32.95;22.50;;;-0.70;99.90;;;;;;4862851;29;20049;-63
2022/12/13 00:44:32;;;;;;;33.85;22.30;;;-0.70;99.90;;;;;;4862392;29;20049;-63
2022/12/13 00:46:59;;;;;;;35.67;23.20;;;-0.80;99.90;;;;;;4862560;29;20053;-65
2022/12/13 00:49:26;;;;;;;35.15;24.50;;;-0.80;99.90;;;;;;4862388;29;20152;-65
2022/12/13 00:51:52;;;;;;;34.75;23.88;;;-0.80;99.90;;;;;;4862884;29;20438;-64
2022/12/13 00:54:19;;;;;;;36.42;25.00;;;-0.80;99.90;;;;;;4860032;29;20140;-65
2022/12/13 00:56:46;;;;;;;35.45;23.52;;;-0.80;99.90;;;;;;4862338;29;20065;-65
2022/12/13 00:59:13;;;;;;;36.88;23.55;;;-0.80;99.90;;;;;;4855876;29;20049;-65
2022/12/13 01:01:39;;;;;;;38.10;24.77;;;-0.80;99.90;;;;;;4843946;29;20497;-65
2022/12/13 01:04:06;;;;;;;36.00;24.98;;;-0.80;99.90;;;;;;4843091;29;20143;-65
2022/12/13 01:06:33;;;;;;;38.10;25.08;;;-0.80;99.90;;;;;;4842593;29;20057;-66
2022/12/13 01:09:00;;;;;;;37.03;23.85;;;-0.80;99.90;;;;;;4843752;29;20090;-65
2022/12/13 01:11:27;;;;;;;39.45;24.65;;;-0.90;99.90;;;;;;4845443;29;20074;-65
2022/12/13 01:13:53;;;;;;;33.92;22.60;;;-0.90;99.90;;;;;;4843824;29;20046;-65
2022/12/13 01:16:20;;;;;;;39.78;25.42;;;-0.90;99.90;;;;;;4843557;29;20148;-65
2022/12/13 01:18:47;;;;;;;34.17;22.95;;;-0.90;99.90;;;;;;4843163;29;20490;-65
2022/12/13 01:21:14;;;;;;;34.50;23.05;;;-0.90;99.90;;;;;;4843733;29;20121;-64
2022/12/13 01:23:43;;;;;;;37.67;24.77;;;-0.90;99.90;;;;;;4843556;29;20525;-64
2022/12/13 01:26:10;;;;;;;37.63;24.85;;;-0.90;99.90;;;;;;4852872;29;20065;-65
2022/12/13 01:28:36;;;;;;;37.65;25.30;;;-0.90;99.90;;;;;;4860169;29;20081;-65
2022/12/13 01:31:03;;;;;;;36.08;25.13;;;-0.90;99.90;;;;;;4861612;29;20076;-65
2022/12/13 01:33:30;;;;;;;38.85;24.48;;;-0.90;99.90;;;;;;4861742;29;20417;-65
2022/12/13 01:35:56;;;;;;;36.40;24.65;;;-0.90;99.90;;;;;;4861649;29;20085;-65
2022/12/13 01:38:23;;;;;;;33.72;24.30;;;-0.90;99.90;;;;;;4861663;29;20128;-65
2022/12/13 01:40:56;;;;;;;36.55;25.17;;;-0.90;99.90;;;;;;4860691;29;20505;-65
2022/12/13 01:43:25;;;;;;;36.35;25.25;;;-1.00;99.90;;;;;;4861474;29;20068;-66
2022/12/13 01:45:51;;;;;;;38.38;24.95;;;-1.00;99.90;;;;;;4855120;29;20502;-65
2022/12/13 01:48:18;;;;;;;38.15;26.05;;;-1.00;99.90;;;;;;4842790;29;20061;-65
2022/12/13 01:50:45;;;;;;;36.95;24.52;;;-1.00;99.90;;;;;;4842838;29;20073;-65
2022/12/13 01:53:12;;;;;;;39.90;26.05;;;-1.00;99.90;;;;;;4842898;29;20050;-65
2022/12/13 01:55:38;;;;;;;35.47;24.17;;;-1.00;99.90;;;;;;4842635;29;20427;-64
2022/12/13 01:58:07;;;;;;;41.15;25.35;;;-1.00;99.90;;;;;;4842604;29;20451;-64
2022/12/13 02:00:34;;;;;;;36.67;24.17;;;-1.00;99.90;;;;;;4842651;29;20340;-64
2022/12/13 02:03:01;;;;;;;38.13;24.63;;;-1.00;99.90;;;;;;4843123;29;20069;-65
2022/12/13 02:05:27;;;;;;;36.88;24.48;;;-1.00;99.90;;;;;;4842523;29;20391;-65
2022/12/13 02:07:54;;;;;;;39.60;26.10;;;-1.10;99.90;;;;;;4841369;29;20410;-65
2022/12/13 02:10:21;;;;;;;40.05;25.20;;;-1.10;99.90;;;;;;4842463;29;20042;-64
2022/12/13 02:12:48;;;;;;;37.53;24.55;;;-1.10;99.90;;;;;;4842538;29;20042;-65
2022/12/13 02:15:15;;;;;;;37.55;25.52;;;-1.10;99.90;;;;;;4842466;29;20129;-65
2022/12/13 02:17:42;;;;;;;38.65;25.17;;;-1.10;99.90;;;;;;4842643;29;20042;-65
2022/12/13 02:20:11;;;;;;;38.90;24.98;;;-1.10;99.90;;;;;;4842818;29;20050;-65
2022/12/13 02:22:47;;;;;;;;;;;-1.10;99.90;;;;;;4842750;29;20132;-65
2022/12/13 02:25:13;;;;;;;40.40;24.52;;;-1.10;99.90;;;;;;4850530;29;19924;-66
2022/12/13 02:27:41;;;;;;;37.88;24.85;;;-1.10;99.90;;;;;;4849391;29;20046;-65
2022/12/13 02:30:08;;;;;;;37.28;25.63;;;-1.20;99.90;;;;;;4842473;29;20121;-65
2022/12/13 02:32:35;;;;;;;41.35;25.50;;;-1.20;99.90;;;;;;4842723;29;20050;-65
2022/12/13 02:35:02;;;;;;;35.97;24.30;;;-1.20;99.90;;;;;;4842046;29;20133;-65
2022/12/13 02:37:28;;;;;;;34.60;23.98;;;-1.20;99.90;;;;;;4842249;29;20106;-65
2022/12/13 02:39:55;;;;;;;38.63;24.88;;;-1.20;99.90;;;;;;4842084;29;20141;-65
2022/12/13 02:42:22;;;;;;;35.97;23.83;;;-1.30;99.90;;;;;;4841984;29;20442;-65
2022/12/13 02:44:49;;;;;;;38.75;25.25;;;-1.30;99.90;;;;;;4842340;29;20093;-65
2022/12/13 02:47:16;;;;;;;38.97;24.50;;;-1.30;99.90;;;;;;4842547;29;20061;-65
2022/12/13 02:49:48;;;;;;;37.97;24.67;;;-1.30;99.90;;;;;;4840798;29;20073;-65
2022/12/13 02:52:14;;;;;;;38.47;24.08;;;-1.30;99.90;;;;;;4847755;29;20046;-65
2022/12/13 02:54:48;;;;;;;36.20;23.58;;;-1.30;99.90;;;;;;4860375;29;20053;-65
2022/12/13 02:57:16;;;;;;;35.85;23.45;;;-1.30;99.90;;;;;;4859493;29;20070;-65
2022/12/13 02:59:47;;;;;;;38.25;24.25;;;-1.30;99.90;;;;;;4858208;29;20046;-65
2022/12/13 03:02:18;;;;;;;35.13;22.95;;;-1.40;99.90;;;;;;4860249;29;20045;-65
2022/12/13 03:07:43;;;;;;;36.08;22.88;;;-1.40;99.90;;;;;;4860448;29;20045;-65
2022/12/13 03:10:09;;;;;;;36.90;23.58;;;-1.40;99.90;;;;;;4859459;29;20125;-65
2022/12/13 03:15:22;;;;;;;38.88;22.88;;;-1.40;99.90;;;;;;4858218;29;20504;-65
2022/12/13 03:17:48;;;;;;;32.75;21.55;;;-1.40;99.90;;;;;;4841546;29;20397;-65
2022/12/13 03:20:15;;;;;;;34.83;22.88;;;-1.40;99.90;;;;;;4850918;29;20355;-65
2022/12/13 03:22:49;;;;;;;34.33;22.10;;;-1.50;99.90;;;;;;4843654;29;20062;-65
2022/12/13 03:25:16;;;;;;;34.83;22.90;;;-1.40;99.90;;;;;;4841293;29;20098;-65
2022/12/13 03:27:57;;;;;;;34.20;22.70;;;-1.50;99.90;;;;;;4842148;29;20058;-65
2022/12/13 03:30:27;;;;;;;33.40;20.73;;;-1.50;99.90;;;;;;4841762;29;20042;-65
2022/12/13 03:32:54;;;;;;;35.00;22.63;;;-1.60;99.90;;;;;;4841603;29;20045;-65
2022/12/13 03:35:21;;;;;;;32.35;22.05;;;-1.60;99.90;;;;;;4841375;29;20054;-65
2022/12/13 03:37:48;;;;;;;33.72;21.45;;;-1.60;99.90;;;;;;4841508;29;20053;-65
2022/12/13 03:40:15;;;;;;;36.15;20.75;;;-1.60;99.90;;;;;;4841291;29;20077;-65
2022/12/13 03:42:41;;;;;;;35.20;21.60;;;-1.50;99.90;;;;;;4841349;29;20387;-65
2022/12/13 03:45:08;;;;;;;32.72;21.52;;;-1.50;99.90;;;;;;4841231;29;20077;-65
2022/12/13 03:47:35;;;;;;;31.45;20.35;;;-1.50;99.90;;;;;;4853473;29;20045;-65
2022/12/13 03:50:02;;;;;;;31.05;19.83;;;-1.60;99.90;;;;;;4858264;29;20550;-65
2022/12/13 03:52:50;;;;;;;31.95;20.48;;;-1.50;99.90;;;;;;4860104;29;20128;-64
2022/12/13 03:55:17;;;;;;;33.83;21.48;;;-1.60;99.90;;;;;;4859595;29;20053;-64
2022/12/13 03:57:44;;;;;;;30.90;20.25;;;-1.60;99.90;;;;;;4860018;29;20491;-65
2022/12/13 04:00:10;;;;;;;36.33;21.45;;;-1.60;99.90;;;;;;4857828;29;20061;-65
2022/12/13 04:02:41;;;;;;;34.60;21.27;;;-1.60;99.90;;;;;;4858432;29;20049;-65
2022/12/13 04:05:08;;;;;;;36.17;22.33;;;-1.60;99.90;;;;;;4860098;29;20128;-65
2022/12/13 04:07:34;;;;;;;32.67;21.42;;;-1.60;99.90;;;;;;4859460;29;20046;-65
2022/12/13 04:10:01;;;;;;;31.42;20.40;;;-1.60;99.90;;;;;;4841413;29;20125;-65
2022/12/13 04:15:14;;;;;;;32.45;20.35;;;-1.70;99.90;;;;;;4844496;29;20110;-64
2022/12/13 04:17:41;;;;;;;33.20;20.60;;;-1.70;99.90;;;;;;4844763;29;20431;-65
2022/12/13 04:20:08;;;;;;;30.52;19.75;;;-1.70;99.90;;;;;;4844837;29;20129;-64
2022/12/13 04:22:34;;;;;;;32.15;20.95;;;-1.70;99.90;;;;;;4844233;29;20073;-64
2022/12/13 04:25:01;;;;;;;29.85;20.08;;;-1.70;99.90;;;;;;4843467;29;20053;-64
2022/12/13 04:27:28;;;;;;;27.13;18.70;;;-1.70;99.90;;;;;;4853149;29;20037;-64
2022/12/13 04:29:55;;;;;;;27.92;18.38;;;-1.70;99.90;;;;;;4848005;29;20042;-64
2022/12/13 04:32:21;;;;;;;25.70;16.83;;;-1.70;99.90;;;;;;4844129;29;20098;-65
2022/12/13 04:34:52;;;;;;;25.88;16.77;;;-1.60;99.90;;;;;;4844116;29;20087;-64
2022/12/13 04:37:27;;;;;;;27.85;16.98;;;-1.70;99.90;;;;;;4844791;29;20069;-64
2022/12/13 04:39:53;;;;;;;30.77;17.23;;;-1.70;99.90;;;;;;4855857;29;20042;-64
2022/12/13 04:42:26;;;;;;;27.25;16.30;;;-1.60;99.90;;;;;;4862507;29;20049;-64
2022/12/13 04:44:53;;;;;;;26.65;16.83;;;-1.60;99.90;;;;;;4862299;29;20099;-64
2022/12/13 04:47:20;;;;;;;27.98;16.42;;;-1.60;99.90;;;;;;4861972;29;20441;-64
2022/12/13 04:49:46;;;;;;;26.80;17.48;;;-1.60;99.90;;;;;;4862733;29;20076;-64
2022/12/13 04:52:13;;;;;;;30.42;17.15;;;-1.60;99.90;;;;;;4862288;29;20045;-64
2022/12/13 04:54:48;;;;;;;22.02;14.85;;;-1.60;99.90;;;;;;4862412;29;20068;-64
2022/12/13 04:57:21;;;;;;;25.33;16.02;;;-1.60;99.90;;;;;;4844222;29;20050;-64
2022/12/13 04:59:48;;;;;;;26.58;16.00;;;-1.60;99.90;;;;;;4842960;29;20046;-64
2022/12/13 05:02:15;;;;;;;25.83;16.30;;;-1.60;99.90;;;;;;4843756;29;20054;-64
2022/12/13 05:04:49;;;;;;;23.58;15.18;;;-1.60;99.90;;;;;;4844200;29;20053;-64
2022/12/13 05:07:21;;;;;;;22.65;14.82;;;-1.60;99.90;;;;;;4843423;29;20042;-64
2022/12/13 05:09:48;;;;;;;22.35;14.45;;;-1.60;99.90;;;;;;4843331;29;20042;-64
2022/12/13 05:12:15;;;;;;;24.08;14.45;;;-1.60;99.90;;;;;;4843683;29;20125;-64
2022/12/13 05:14:48;;;;;;;23.65;14.77;;;-1.60;99.90;;;;;;4844529;29;20497;-64
2022/12/13 05:17:15;;;;;;;22.23;13.30;;;-1.50;99.90;;;;;;4849188;29;20045;-64
2022/12/13 05:19:42;;;;;;;21.55;13.40;;;-1.50;99.90;;;;;;4861401;29;20063;-64
2022/12/13 05:22:14;;;;;;;23.73;14.55;;;-1.50;99.90;;;;;;4860259;29;20140;-64
2022/12/13 05:24:45;;;;;;;22.13;13.13;;;-1.50;99.90;;;;;;4844342;29;20056;-64
2022/12/13 05:27:12;;;;;;;21.40;13.73;;;-1.50;99.90;;;;;;4843250;29;20486;-64
2022/12/13 05:29:52;;;;;;;20.73;14.07;;;-1.50;99.90;;;;;;4843147;29;20053;-64
2022/12/13 05:32:30;;;;;;;21.08;13.65;;;-1.40;99.90;;;;;;4855890;29;20050;-64
2022/12/13 05:34:56;;;;;;;20.75;13.35;;;-1.40;99.90;;;;;;4861253;29;20056;-64
2022/12/13 05:37:23;;;;;;;23.33;15.60;;;-1.40;99.90;;;;;;4856256;29;20045;-64
2022/12/13 05:39:50;;;;;;;18.83;12.32;;;-1.40;99.90;;;;;;4853929;29;20142;-64
2022/12/13 05:42:16;;;;;;;25.48;14.25;;;-1.40;99.90;;;;;;4861924;29;20097;-64
2022/12/13 05:44:43;;;;;;;21.10;13.73;;;-1.40;99.90;;;;;;4861553;29;20057;-64
2022/12/13 05:47:10;;;;;;;18.13;12.43;;;-1.40;99.90;;;;;;4860305;29;20132;-64
2022/12/13 05:49:37;;;;;;;20.15;12.88;;;-1.40;99.90;;;;;;4860406;29;20102;-64
2022/12/13 05:52:05;;;;;;;20.08;12.90;;;-1.30;99.90;;;;;;4857357;29;20117;-64
2022/12/13 05:54:31;;;;;;;18.45;12.38;;;-1.30;99.90;;;;;;4844692;29;20101;-64
2022/12/13 05:56:58;;;;;;;19.65;12.52;;;-1.30;99.90;;;;;;4859865;29;20116;-64
2022/12/13 05:59:25;;;;;;;18.35;12.35;;;-1.30;99.90;;;;;;4861835;29;20449;-64
2022/12/13 06:01:52;;;;;;;20.17;12.77;;;-1.30;99.90;;;;;;4856396;29;20052;-64
2022/12/13 06:04:18;;;;;;;16.90;11.50;;;-1.30;99.90;;;;;;4859754;29;20052;-64
2022/12/13 06:06:48;;;;;;;18.60;12.30;;;-1.30;99.90;;;;;;4860852;29;20045;-64
2022/12/13 06:09:16;;;;;;;17.70;11.77;;;-1.30;99.90;;;;;;4865802;29;20057;-64
2022/12/13 06:11:44;;;;;;;17.02;11.32;;;-1.30;99.90;;;;;;4858883;29;20049;-63
2022/12/13 06:14:10;;;;;;;19.50;12.32;;;-1.40;99.90;;;;;;4842867;29;20094;-64
2022/12/13 06:16:48;;;;;;;18.67;12.15;;;-1.40;99.90;;;;;;4860794;29;20045;-64
2022/12/13 06:19:15;;;;;;;18.98;12.60;;;-1.40;99.90;;;;;;4859773;29;20087;-64
2022/12/13 06:21:41;;;;;;;20.77;12.90;;;-1.40;99.90;;;;;;4859665;29;20124;-64
2022/12/13 06:24:12;;;;;;;19.85;13.60;;;-1.40;99.90;;;;;;4853308;29;20065;-64
2022/12/13 06:26:38;;;;;;;20.35;13.43;;;-1.40;99.90;;;;;;4842510;29;20442;-64
2022/12/13 06:29:05;;;;;;;21.33;14.40;;;-1.40;99.90;;;;;;4858306;29;20093;-64
2022/12/13 06:31:32;;;;;;;24.98;14.00;;;-1.50;99.90;;;;;;4859746;29;20132;-64
2022/12/13 06:33:58;;;;;;;24.48;14.02;;;-1.50;99.90;;;;;;4848980;29;20106;-64
2022/12/13 06:36:40;;;;;;;21.45;13.80;;;-1.50;99.90;;;;;;4853633;29;20101;-63
2022/12/13 06:39:07;;;;;;;21.65;13.80;;;-1.50;99.90;;;;;;4851239;29;20098;-64
2022/12/13 06:41:35;;;;;;;19.90;11.90;;;-1.50;99.90;;;;;;4859893;29;20128;-64
2022/12/13 06:44:04;;;;;;;19.50;12.85;;;-1.50;99.90;;;;;;4854128;29;20102;-64
2022/12/13 06:46:31;;;;;;;21.17;13.52;;;-1.50;99.90;;;;;;4842657;29;20077;-64
2022/12/13 06:48:58;;;;;;;22.48;13.85;;;-1.40;99.90;;;;;;4842297;29;20049;-63
2022/12/13 06:51:25;;;;;;;20.73;13.40;;;-1.50;99.90;;;;;;4842322;29;20121;-64
2022/12/13 06:53:58;;;;;;;22.10;14.88;;;-1.40;99.90;;;;;;4841657;29;20050;-64
2022/12/13 06:56:26;;;;;;;21.33;13.43;;;-1.50;99.90;;;;;;4847530;29;20041;-64
2022/12/13 06:58:53;;;;;;;22.27;13.50;;;-1.50;99.90;;;;;;4845429;29;20046;-64
2022/12/13 07:01:27;;;;;;;22.15;14.73;;;-1.40;99.90;;;;;;4844153;29;20072;-64
2022/12/13 07:04:02;;;;;;;22.30;14.35;;;-1.40;99.90;;;;;;4856670;29;20077;-64
2022/12/13 07:06:29;;;;;;;22.10;13.95;;;-1.40;99.90;;;;;;4842119;29;20049;-64
2022/12/13 07:08:56;;;;;;;26.00;14.82;;;-1.40;99.90;;;;;;4852535;29;20102;-64
2022/12/13 07:11:23;;;;;;;23.00;14.43;;;-1.40;99.90;;;;;;4849986;29;20091;-64
2022/12/13 07:13:49;;;;;;;22.75;13.82;;;-1.40;99.90;;;;;;4857181;29;20471;-64
2022/12/13 07:16:16;;;;;;;27.60;15.15;;;-1.40;99.90;;;;;;4855427;29;20042;-64
2022/12/13 07:18:43;;;;;;;25.10;14.98;;;-1.40;99.90;;;;;;4855932;29;20110;-64
2022/12/13 07:21:10;;;;;;;23.15;13.90;;;-1.40;99.90;;;;;;4843395;29;20125;-64
2022/12/13 07:23:47;;;;;;;21.27;13.73;;;-1.40;99.90;;;;;;4841868;29;20054;-64
2022/12/13 07:26:20;;;;;;;24.27;14.77;;;-1.40;99.90;;;;;;4843365;29;20102;-64
2022/12/13 07:28:47;;;;;;;24.30;14.75;;;-1.40;99.90;;;;;;4842850;29;20056;-64
2022/12/13 07:31:21;;;;;;;22.60;15.55;;;-1.30;99.90;;;;;;4848378;29;20049;-64
2022/12/13 07:33:48;;;;;;;23.30;14.30;;;-1.30;99.90;;;;;;4856362;29;20120;-64
2022/12/13 07:36:15;;;;;;;23.38;14.15;;;-1.30;99.90;;;;;;4840825;29;20054;-64
2022/12/13 07:38:41;;;;;;;21.40;13.52;;;-1.40;99.90;;;;;;4842400;29;20134;-64
2022/12/13 07:41:10;;;;;;;26.60;14.38;;;-1.40;99.90;;;;;;4840949;29;20050;-64
2022/12/13 07:43:37;;;;;;;20.13;13.85;;;-1.40;99.90;;;;;;4843733;29;20114;-64
2022/12/13 07:46:04;;;;;;;21.42;14.10;;;-1.40;99.90;;;;;;4840574;29;20057;-64
2022/12/13 07:48:31;;;;;;;22.40;13.82;;;-1.40;99.90;;;;;;4844743;29;20530;-64
2022/12/13 07:50:57;;;;;;;20.48;13.50;;;-1.40;99.90;;;;;;4847925;29;20750;-64
2022/12/13 07:53:24;;;;;;;22.42;14.93;;;-1.40;99.90;;;;;;4856511;29;20078;-64
2022/12/13 07:55:51;;;;;;;25.20;15.43;;;-1.40;99.90;;;;;;4856487;29;20106;-63
2022/12/13 07:58:18;;;;;;;22.08;14.13;;;-1.40;99.90;;;;;;4843611;29;20148;-63
2022/12/13 08:00:44;;;;;;;19.35;13.30;;;-1.40;99.90;;;;;;4856252;29;20142;-64
2022/12/13 08:03:12;;;;;;;19.63;13.00;;;-1.40;99.90;;;;;;4856856;29;20050;-64
2022/12/13 08:05:51;;;;;;;19.25;13.10;;;-1.40;99.90;;;;;;4846746;29;20050;-64
2022/12/13 08:08:24;;;;;;;22.48;14.05;;;-1.40;99.90;;;;;;4862122;29;20490;-63
2022/12/13 08:10:57;;;;;;;20.55;13.75;;;-1.40;99.90;;;;;;4845870;29;20098;-63
2022/12/13 08:13:27;;;;;;;24.65;15.02;;;-1.40;99.90;;;;;;4855661;29;20053;-63
2022/12/13 08:15:53;;;;;;;21.20;12.60;;;-1.40;99.90;;;;;;4844499;29;20042;-64
2022/12/13 08:18:20;;;;;;;20.08;12.60;;;-1.30;99.90;;;;;;4859164;29;20057;-64
2022/12/13 08:20:47;;;;;;;18.95;12.68;;;-1.20;99.90;;;;;;4848016;29;20070;-63
2022/12/13 08:23:14;;;;;;;21.33;13.27;;;-1.20;99.90;;;;;;4856432;29;20124;-64
2022/12/13 08:25:40;;;;;;;19.85;12.98;;;-1.20;99.90;;;;;;4853678;29;20140;-63
2022/12/13 08:28:07;;;;;;;20.42;12.93;;;-1.10;99.90;;;;;;4846433;29;20075;-64
2022/12/13 08:30:34;;;;;;;20.08;12.73;;;-1.10;99.90;;;;;;4851297;29;20132;-63
2022/12/13 08:33:01;;;;;;;22.25;12.95;;;-1.10;99.90;;;;;;4851175;29;20066;-63
2022/12/13 08:35:30;;;;;;;21.80;13.13;;;-1.10;99.90;;;;;;4848306;29;20077;-63
2022/12/13 08:38:00;;;;;;;19.33;13.13;;;-1.10;99.90;;;;;;4849499;29;20168;-63
2022/12/13 08:40:27;;;;;;;19.95;13.52;;;-1.10;99.90;;;;;;4862212;29;20117;-64
2022/12/13 08:42:53;;;;;;;18.75;13.45;;;-1.10;99.90;;;;;;4861026;29;20109;-64
2022/12/13 08:45:22;;;;;;;19.55;12.77;;;-1.10;99.90;;;;;;4842725;29;20046;-64
2022/12/13 08:47:49;;;;;;;21.73;13.80;;;-1.10;99.90;;;;;;4844008;29;20073;-63
2022/12/13 08:50:16;;;;;;;19.95;13.43;;;-1.10;99.90;;;;;;4853749;29;20049;-64
2022/12/13 08:52:43;;;;;;;22.92;13.52;;;-1.10;99.90;;;;;;4868414;29;20463;-64
2022/12/13 08:55:11;;;;;;;22.15;13.57;;;-1.00;99.90;;;;;;4856146;29;20128;-64
2022/12/13 08:57:37;;;;;;;20.88;13.40;;;-1.00;99.90;;;;;;4842256;29;20045;-64
2022/12/13 09:00:04;;;;;;;21.83;13.75;;;-0.90;99.90;;;;;;4855096;29;20045;-63
2022/12/13 09:02:31;;;;;;;21.83;15.07;;;-0.90;99.90;;;;;;4860380;29;20691;-64
2022/12/13 09:05:04;;;;;;;21.92;14.13;;;-0.90;99.90;;;;;;4861701;29;20106;-64
2022/12/13 09:07:30;;;;;;;21.35;13.70;;;-0.80;99.90;;;;;;4861604;29;20113;-64
2022/12/13 09:09:57;;;;;;;20.27;13.27;;;-0.80;99.90;;;;;;4860533;29;20058;-64
2022/12/13 09:12:32;;;;;;;19.60;13.80;;;-0.70;99.90;;;;;;4857726;29;20052;-63
2022/12/13 09:15:07;;;;;;;20.70;14.13;;;-0.70;99.90;;;;;;4848201;29;20121;-64
2022/12/13 09:17:48;;;;;;;21.30;13.85;;;-0.70;99.90;;;;;;4857057;29;20505;-64
2022/12/13 09:20:18;;;;;;;22.23;13.85;;;-0.60;99.90;;;;;;4860406;29;20124;-64
2022/12/13 09:22:55;;;;;;;18.02;13.00;;;-0.60;99.90;;;;;;4852083;29;20049;-62
2022/12/13 09:25:28;;;;;;;20.30;14.02;;;-0.60;99.90;;;;;;4856292;29;20053;-62
2022/12/13 09:28:02;;;;;;;22.77;13.68;;;-0.50;99.90;;;;;;4851592;29;20486;-62
2022/12/13 09:30:29;;;;;;;20.75;13.05;;;-0.50;99.90;;;;;;4854813;29;20053;-63
2022/12/13 09:32:57;;;;;;;22.33;13.93;;;-0.40;99.90;;;;;;4854821;29;20038;-63
2022/12/13 09:35:23;;;;;;;21.00;13.85;;;-0.40;99.90;;;;;;4854077;29;20061;-63
2022/12/13 09:37:50;;;;;;;19.77;13.05;;;-0.40;99.90;;;;;;4852910;29;20090;-63
2022/12/13 09:40:18;;;;;;;20.58;14.05;;;-0.30;99.90;;;;;;4858070;29;20110;-63
2022/12/13 09:42:51;;;;;;;22.20;13.02;;;-0.30;99.90;;;;;;4855119;29;20057;-64
2022/12/13 09:45:38;;;;;;;19.38;12.43;;;-0.30;99.90;;;;;;4859208;29;20076;-64
2022/12/13 09:48:08;;;;;;;18.27;12.05;;;-0.30;99.90;;;;;;4857280;29;20136;-63
2022/12/13 09:50:39;;;;;;;19.98;12.55;;;-0.20;99.90;;;;;;4855542;29;20129;-64
2022/12/13 09:53:20;;;;;;;19.00;11.85;;;-0.20;99.90;;;;;;4857682;29;20030;-64
2022/12/13 09:55:47;;;;;;;26.83;15.20;;;-0.10;99.90;;;;;;4855766;29;20046;-64
2022/12/13 09:58:14;;;;;;;20.27;12.43;;;-0.10;99.90;;;;;;4850363;29;20041;-64
2022/12/13 10:00:41;;;;;;;18.35;11.80;;;0.00;99.90;;;;;;4853381;29;20073;-66
2022/12/13 10:03:08;;;;;;;18.23;12.63;;;0.00;99.90;;;;;;4854025;29;20102;-64
2022/12/13 10:05:35;;;;;;;17.10;12.13;;;0.10;99.90;;;;;;4849635;29;20049;-64
2022/12/13 10:08:05;;;;;;;18.10;12.27;;;0.10;99.90;;;;;;4844703;29;20065;-64
2022/12/13 10:10:32;;;;;;;19.10;11.07;;;0.20;99.90;;;;;;4843634;29;20372;-65
2022/12/13 10:12:58;;;;;;;17.20;11.77;;;0.20;99.90;;;;;;4856684;29;20474;-64
2022/12/13 10:15:25;;;;;;;16.92;11.32;;;0.30;99.90;;;;;;4849512;29;20160;-64
2022/12/13 10:17:52;;;;;;;16.33;10.88;;;0.30;99.90;;;;;;4854576;29;20045;-62
2022/12/13 10:20:23;;;;;;;16.35;11.15;;;0.30;99.90;;;;;;4847927;29;20045;-64
2022/12/13 10:22:49;;;;;;;15.45;9.82;;;0.40;99.90;;;;;;4849920;29;20136;-63
2022/12/13 10:25:36;;;;;;;17.38;10.95;;;0.40;99.90;;;;;;4848817;29;20092;-63
2022/12/13 10:28:03;;;;;;;18.67;10.57;;;0.40;99.90;;;;;;4848991;29;20056;-63
2022/12/13 10:30:30;;;;;;;14.90;10.25;;;0.50;99.90;;;;;;4854092;29;20077;-64
2022/12/13 10:32:56;;;;;;;17.35;10.27;;;0.50;99.90;;;;;;4848761;29;20053;-64
2022/12/13 10:35:23;;;;;;;17.27;11.23;;;0.60;99.90;;;;;;4848100;29;20383;-63
2022/12/13 10:37:50;;;;;;;18.95;11.52;;;0.60;99.90;;;;;;4850325;29;20045;-63
2022/12/13 10:40:17;;;;;;;17.35;11.23;;;0.70;99.90;;;;;;4847259;29;20042;-64
2022/12/13 10:42:58;;;;;;;22.60;13.02;;;0.70;99.90;;;;;;4853854;29;20049;-63
2022/12/13 10:45:25;;;;;;;17.30;13.00;;;0.70;99.90;;;;;;4845684;29;20093;-63
2022/12/13 10:47:52;;;;;;;18.92;12.43;;;0.70;99.90;;;;;;4848941;29;20075;-63
2022/12/13 10:50:18;;;;;;;18.15;12.35;;;0.80;99.90;;;;;;4849197;29;20057;-63
2022/12/13 10:52:45;;;;;;;18.10;12.40;;;0.80;99.90;;;;;;4850723;29;20110;-64
2022/12/13 10:55:12;;;;;;;15.65;11.43;;;0.80;99.90;;;;;;4853636;29;20113;-63
2022/12/13 10:57:49;;;;;;;16.83;12.02;;;0.80;99.90;;;;;;4853524;29;20551;-63
2022/12/13 11:00:16;;;;;;;20.30;12.23;;;0.80;99.90;;;;;;4858265;29;20046;-63
2022/12/13 11:02:42;;;;;;;19.73;12.30;;;0.80;99.90;;;;;;4858360;29;20054;-62
2022/12/13 11:05:09;;;;;;;19.05;12.13;;;0.80;99.90;;;;;;4858472;29;20053;-64
2022/12/13 11:07:37;;;;;;;16.30;11.20;;;0.90;99.90;;;;;;4859305;29;20090;-63
2022/12/13 11:10:03;;;;;;;17.38;10.82;;;0.90;99.90;;;;;;4858273;29;20048;-63
2022/12/13 11:12:40;;;;;;;14.38;10.38;;;0.90;99.90;;;;;;4859865;29;20469;-63
2022/12/13 11:15:06;;;;;;;14.90;11.00;;;0.90;99.90;;;;;;4858231;29;20080;-63
2022/12/13 11:17:33;;;;;;;14.73;10.75;;;1.00;99.90;;;;;;4859772;29;20050;-63
2022/12/13 11:20:00;;;;;;;17.90;11.43;;;1.10;99.90;;;;;;4859627;29;20124;-64
2022/12/13 11:22:27;;;;;;;15.00;10.43;;;1.10;99.90;;;;;;4862894;29;20482;-62
2022/12/13 11:24:54;;;;;;;15.07;10.45;;;1.20;99.90;;;;;;4862159;29;20045;-63
2022/12/13 11:27:20;;;;;;;13.50;9.88;;;1.20;99.90;;;;;;4863584;29;20110;-63
2022/12/13 11:29:47;;;;;;;13.45;9.95;;;1.20;99.90;;;;;;4863183;29;20533;-63
2022/12/13 11:32:14;;;;;;;19.00;11.63;;;1.30;99.90;;;;;;4863306;29;20393;-63
2022/12/13 11:34:48;;;;;;;17.40;11.13;;;1.30;99.90;;;;;;4862727;29;20148;-63
2022/12/13 11:37:15;;;;;;;14.65;9.90;;;1.30;99.90;;;;;;4861375;29;20077;-63
2022/12/13 11:39:42;;;;;;;16.55;10.05;;;1.40;99.90;;;;;;4861993;29;20413;-64
2022/12/13 11:42:08;;;;;;;15.48;10.23;;;1.40;99.90;;;;;;4863366;29;20098;-63
2022/12/13 11:44:35;;;;;;;17.42;10.20;;;1.40;99.90;;;;;;4863776;29;20052;-63
2022/12/13 11:47:02;;;;;;;12.63;9.20;;;1.40;99.90;;;;;;4863355;29;20132;-64
2022/12/13 11:49:29;;;;;;;18.55;10.60;;;1.50;99.90;;;;;;4863609;29;20041;-63
2022/12/13 11:51:56;;;;;;;13.40;9.65;;;1.50;99.90;;;;;;4863156;29;20114;-63
2022/12/13 11:54:22;;;;;;;18.67;11.05;;;1.50;99.90;;;;;;4863019;29;20101;-62
2022/12/13 11:56:50;;;;;;;18.70;11.27;;;1.60;99.90;;;;;;4863103;29;20046;-64
2022/12/13 11:59:26;;;;;;;14.65;10.43;;;1.60;99.90;;;;;;4863041;29;20125;-64
2022/12/13 12:01:53;;;;;;;14.52;10.38;;;1.70;99.90;;;;;;4861739;29;20038;-63
2022/12/13 12:04:20;;;;;;;15.45;11.13;;;1.70;99.90;;;;;;4850599;29;20054;-63
2022/12/13 12:06:47;;;;;;;16.90;10.90;;;1.70;99.90;;;;;;4858416;29;20042;-64
2022/12/13 12:09:14;;;;;;;17.38;10.90;;;1.70;99.90;;;;;;4861600;29;20156;-63
2022/12/13 12:11:41;;;;;;;18.48;10.90;;;1.80;99.90;;;;;;4862683;29;20167;-64
2022/12/13 12:14:07;;;;;;;14.95;11.35;;;1.70;99.90;;;;;;4861808;29;20461;-64
2022/12/13 12:16:34;;;;;;;16.65;10.82;;;1.80;99.90;;;;;;4861420;29;20132;-63
2022/12/13 12:19:01;;;;;;;14.85;10.48;;;1.80;99.90;;;;;;4862578;29;20045;-63
2022/12/13 12:21:28;;;;;;;15.75;10.77;;;1.80;99.90;;;;;;4862819;29;20049;-64
2022/12/13 12:24:15;;;;;;;13.60;10.40;;;1.80;99.90;;;;;;4862634;29;20045;-64
2022/12/13 12:26:41;;;;;;;14.73;10.43;;;1.80;99.90;;;;;;4862655;29;20080;-63
2022/12/13 12:29:08;;;;;;;16.67;11.32;;;1.80;99.90;;;;;;4862665;29;20053;-64
2022/12/13 12:31:37;;;;;;;15.13;11.23;;;1.90;99.90;;;;;;4862176;29;20053;-63
2022/12/13 12:34:17;;;;;;;17.08;11.13;;;1.90;99.90;;;;;;4862259;29;20069;-64
2022/12/13 12:36:52;;;;;;;15.27;10.75;;;1.90;99.90;;;;;;4862857;29;20082;-65
2022/12/13 12:39:19;;;;;;;16.00;11.65;;;1.90;99.90;;;;;;4853888;29;20083;-64
2022/12/13 12:41:52;;;;;;;16.00;10.73;;;1.90;99.90;;;;;;4857996;29;20150;-65
2022/12/13 12:44:19;;;;;;;17.48;11.95;;;1.90;99.90;;;;;;4862357;29;20463;-65